Time;durP1;ratioP1;P1;durP2;ratioP2;P2;SDS_P1;SDS_P2;PMS_P1;PMS_P2;Temp;Humidity;BMP_temperature;BMP_pressure;BME280_temperature;BME280_humidity;BME280_pressure;Samples;Min_cycle;Max_cycle;Signal;HPM_P1;HPM_P2
2022/07/28 00:01:27;;;;;;;;;;;;;;;18.97;62.35;100738.84;10585900;28;19927;-68
2022/07/28 00:06:30;;;;;;;;;;;;;;;18.81;62.11;100749.09;10585646;28;20329;-67
2022/07/28 00:11:33;;;;;;;;;;;;;;;18.82;61.89;100748.22;10585532;28;19924;-65
2022/07/28 00:16:53;;;;;;;;;;;;;;;18.77;62.37;100747.53;10585484;28;19988;-68
2022/07/28 00:21:56;;;;;;;;;;;;;;;18.77;62.35;100747.53;10585170;28;19923;-68
2022/07/28 00:26:59;;;;;;;;;;;;;;;18.64;63.35;100748.03;10585129;28;19936;-67
2022/07/28 00:32:03;;;;;;;;;;;;;;;18.71;62.99;100760.00;10585066;28;20006;-67
2022/07/28 00:37:07;;;;;;;;;;;;;;;18.54;64.40;100754.53;10590326;28;19924;-65
2022/07/28 00:42:17;;;;;;;;;;;;;;;18.44;65.09;100756.63;10593511;28;19969;-68
2022/07/28 00:47:21;;;;;;;;;;;;;;;18.29;66.52;100763.25;10593472;28;19924;-69
2022/07/28 00:52:24;;;;;;;;;;;;;;;18.36;67.61;100763.91;10593398;28;19924;-67
2022/07/28 00:57:27;;;;;;;;;;;;;;;18.24;68.84;100765.19;10593133;28;19946;-67
2022/07/28 01:02:32;;;;;;;;;;;;;;;18.08;70.03;100769.28;10592893;28;19924;-68
2022/07/28 01:07:39;;;;;;;;;;;;;;;18.10;69.93;100767.41;10592521;28;19930;-66
2022/07/28 01:12:49;;;;;;;;;;;;;;;18.10;70.80;100771.84;10592517;28;19924;-68
2022/07/28 01:18:02;;;;;;;;;;;;;;;18.03;71.18;100773.78;10592725;28;20242;-67
2022/07/28 01:23:13;;;;;;;;;;;;;;;18.10;71.06;100777.09;10592336;28;20018;-66
2022/07/28 01:28:24;;;;;;;;;;;;;;;18.11;70.67;100773.53;10591789;28;19928;-70
2022/07/28 01:33:31;;;;;;;;;;;;;;;18.09;70.59;100776.22;10591799;28;19924;-65
2022/07/28 01:38:35;;;;;;;;;;;;;;;17.94;71.52;100775.88;10591365;28;19941;-70
2022/07/28 01:43:41;;;;;;;;;;;;;;;17.99;72.33;100764.31;10591354;28;19924;-67
2022/07/28 01:48:47;;;;;;;;;;;;;;;17.80;73.89;100773.72;10591051;28;19935;-65
2022/07/28 01:53:52;;;;;;;;;;;;;;;17.76;74.08;100768.59;10591026;28;20004;-68
2022/07/28 01:58:56;;;;;;;;;;;;;;;17.65;75.55;100773.34;10590637;28;19924;-68
2022/07/28 02:04:01;;;;;;;;;;;;;;;17.57;76.09;100770.97;10590534;28;19930;-67
2022/07/28 02:09:06;;;;;;;;;;;;;;;17.63;75.89;100772.53;10590623;28;19945;-68
2022/07/28 02:14:10;;;;;;;;;;;;;;;17.55;76.40;100777.19;10590050;28;19924;-68
2022/07/28 02:19:15;;;;;;;;;;;;;;;17.39;77.90;100770.66;10589735;28;19923;-70
2022/07/28 02:24:20;;;;;;;;;;;;;;;17.37;78.54;100773.34;10589736;28;19934;-67
2022/07/28 02:29:25;;;;;;;;;;;;;;;17.37;78.83;100780.34;10589561;28;19924;-65
2022/07/28 02:34:50;;;;;;;;;;;;;;;17.14;79.62;100789.78;10589056;28;19923;-63
2022/07/28 02:39:54;;;;;;;;;;;;;;;16.92;81.25;100791.31;10588780;28;19927;-69
2022/07/28 02:45:03;;;;;;;;;;;;;;;17.16;80.06;100787.09;10589459;28;20023;-71
2022/07/28 02:50:09;;;;;;;;;;;;;;;17.04;81.88;100788.34;10589053;28;19927;-67
2022/07/28 02:55:14;;;;;;;;;;;;;;;17.08;81.44;100794.34;10588884;28;19924;-67
2022/07/28 03:00:17;;;;;;;;;;;;;;;17.10;81.69;100792.56;10587281;28;19951;-67
2022/07/28 03:05:22;;;;;;;;;;;;;;;17.04;82.20;100804.06;10587990;28;19934;-68
2022/07/28 03:10:26;;;;;;;;;;;;;;;17.07;82.07;100796.13;10588153;28;19934;-66
2022/07/28 03:15:38;;;;;;;;;;;;;;;17.04;82.64;100806.69;10588047;28;19924;-70
2022/07/28 03:20:43;;;;;;;;;;;;;;;17.07;83.28;100811.84;10587205;28;19924;-66
2022/07/28 03:25:47;;;;;;;;;;;;;;;17.17;82.60;100828.19;10587039;28;20259;-67
2022/07/28 03:30:55;;;;;;;;;;;;;;;17.13;82.64;100827.44;10587152;28;19923;-69
2022/07/28 03:36:02;;;;;;;;;;;;;;;17.13;83.07;100831.81;10586914;28;19932;-64
2022/07/28 03:41:06;;;;;;;;;;;;;;;17.12;82.79;100836.19;10586395;28;20370;-66
2022/07/28 03:46:09;;;;;;;;;;;;;;;17.07;84.27;100839.84;10585907;28;19924;-66
2022/07/28 03:51:17;;;;;;;;;;;;;;;17.15;84.55;100840.50;10586234;28;20347;-65
2022/07/28 03:56:21;;;;;;;;;;;;;;;17.11;84.01;100844.09;10585711;28;20141;-66
2022/07/28 04:01:24;;;;;;;;;;;;;;;17.24;83.87;100853.31;10585877;28;19924;-66
2022/07/28 04:06:29;;;;;;;;;;;;;;;17.20;84.54;100849.09;10585607;28;19928;-67
2022/07/28 04:11:32;;;;;;;;;;;;;;;17.29;84.76;100849.66;10585428;27;20018;-67
2022/07/28 04:16:35;;;;;;;;;;;;;;;17.30;85.34;100858.41;10585695;28;20329;-67
2022/07/28 04:21:39;;;;;;;;;;;;;;;17.44;84.70;100858.84;10585401;28;19934;-64
2022/07/28 04:26:42;;;;;;;;;;;;;;;17.51;83.70;100865.66;10585334;28;20260;-64
2022/07/28 04:31:46;;;;;;;;;;;;;;;17.60;82.53;100860.13;10585362;28;20218;-69
2022/07/28 04:36:50;;;;;;;;;;;;;;;17.62;81.77;100860.94;10585368;28;20019;-66
2022/07/28 04:41:53;;;;;;;;;;;;;;;17.70;81.87;100858.09;10585163;28;19946;-65
2022/07/28 04:46:57;;;;;;;;;;;;;;;17.76;81.80;100864.00;10584969;28;19924;-67
2022/07/28 04:52:02;;;;;;;;;;;;;;;17.85;80.34;100860.22;10584505;28;19984;-65
2022/07/28 04:57:05;;;;;;;;;;;;;;;17.91;79.27;100860.03;10585156;28;19924;-67
2022/07/28 05:02:14;;;;;;;;;;;;;;;18.03;78.10;100862.28;10584602;28;19934;-66
2022/07/28 05:07:20;;;;;;;;;;;;;;;18.09;77.02;100867.31;10584423;28;20268;-68
2022/07/28 05:12:22;;;;;;;;;;;;;;;18.15;77.53;100865.34;10584268;28;20252;-67
2022/07/28 05:17:26;;;;;;;;;;;;;;;18.12;77.72;100859.34;10584535;28;19953;-67
2022/07/28 05:22:40;;;;;;;;;;;;;;;18.08;77.13;100858.59;10587623;28;19938;-63
2022/07/28 05:27:43;;;;;;;;;;;;;;;18.01;76.46;100869.34;10592122;28;19924;-66
2022/07/28 05:32:47;;;;;;;;;;;;;;;18.12;75.82;100870.69;10592226;28;19923;-65
2022/07/28 05:37:52;;;;;;;;;;;;;;;18.31;75.96;100873.56;10591374;28;19930;-64
2022/07/28 05:42:55;;;;;;;;;;;;;;;18.34;74.75;100874.31;10591267;28;19930;-66
2022/07/28 05:47:58;;;;;;;;;;;;;;;18.49;73.01;100880.00;10591090;28;20359;-65
2022/07/28 05:53:02;;;;;;;;;;;;;;;18.51;70.59;100878.19;10591003;28;20301;-67
2022/07/28 05:58:05;;;;;;;;;;;;;;;18.56;69.34;100889.41;10590629;28;20345;-66
2022/07/28 06:03:08;;;;;;;;;;;;;;;18.55;67.95;100887.72;10590231;28;19934;-67
2022/07/28 06:08:12;;;;;;;;;;;;;;;18.62;65.99;100891.84;10590100;28;20359;-66
2022/07/28 06:13:15;;;;;;;;;;;;;;;18.70;64.84;100895.06;10590054;28;19934;-68
2022/07/28 06:18:19;;;;;;;;;;;;;;;18.85;64.80;100899.78;10589772;28;20413;-65
2022/07/28 06:23:23;;;;;;;;;;;;;;;18.75;62.72;100898.38;10589360;28;19934;-66
2022/07/28 06:28:26;;;;;;;;;;;;;;;18.85;62.28;100892.75;10589414;28;19946;-64
2022/07/28 06:33:29;;;;;;;;;;;;;;;18.95;61.81;100898.53;10588016;28;19928;-64
2022/07/28 06:38:33;;;;;;;;;;;;;;;19.02;61.55;100907.94;10589057;28;20371;-66
2022/07/28 06:43:36;;;;;;;;;;;;;;;19.04;60.83;100904.34;10589254;28;19923;-67
2022/07/28 06:48:44;;;;;;;;;;;;;;;19.09;60.32;100919.97;10588578;28;19934;-65
2022/07/28 06:53:49;;;;;;;;;;;;;;;19.08;60.16;100910.34;10588642;28;20269;-66
2022/07/28 06:58:52;;;;;;;;;;;;;;;19.15;59.38;100909.22;10588195;28;19930;-67
2022/07/28 07:03:55;;;;;;;;;;;;;;;19.18;59.12;100931.03;10587834;28;19924;-67
2022/07/28 07:08:59;;;;;;;;;;;;;;;19.13;58.87;100924.22;10588027;28;19924;-66
2022/07/28 07:14:02;;;;;;;;;;;;;;;19.24;58.75;100916.78;10587446;28;20243;-67
2022/07/28 07:19:05;;;;;;;;;;;;;;;19.31;58.74;100919.16;10587365;28;19930;-65
2022/07/28 07:24:10;;;;;;;;;;;;;;;19.36;59.02;100924.28;10587304;28;19955;-68
2022/07/28 07:29:14;;;;;;;;;;;;;;;19.36;58.61;100916.38;10587241;28;19946;-67
2022/07/28 07:34:17;;;;;;;;;;;;;;;19.41;59.03;100917.91;10586646;28;19924;-65
2022/07/28 07:39:22;;;;;;;;;;;;;;;19.40;58.71;100916.19;10586608;28;19987;-68
2022/07/28 07:44:25;;;;;;;;;;;;;;;19.57;59.36;100923.44;10586100;28;19926;-65
2022/07/28 07:49:28;;;;;;;;;;;;;;;19.63;59.55;100923.22;10586160;28;20373;-67
2022/07/28 07:54:49;;;;;;;;;;;;;;;19.64;59.06;100930.19;10585865;28;20022;-66
2022/07/28 07:59:52;;;;;;;;;;;;;;;19.68;58.91;100928.31;10585758;28;19923;-65
2022/07/28 08:04:55;;;;;;;;;;;;;;;19.68;58.57;100931.81;10585558;28;19924;-65
2022/07/28 08:10:00;;;;;;;;;;;;;;;19.66;58.31;100930.13;10585607;28;20287;-68
2022/07/28 08:15:03;;;;;;;;;;;;;;;19.76;59.06;100934.16;10585733;28;19934;-66
2022/07/28 08:20:07;;;;;;;;;;;;;;;19.92;59.22;100937.91;10585162;28;19923;-66
2022/07/28 08:25:11;;;;;;;;;;;;;;;20.01;58.74;100927.88;10585128;28;19924;-68
2022/07/28 08:30:15;;;;;;;;;;;;;;;20.09;57.91;100925.78;10585083;28;19924;-66
2022/07/28 08:35:26;;;;;;;;;;;;;;;20.10;57.54;100929.28;10585396;28;19924;-64
2022/07/28 08:40:41;;;;;;;;;;;;;;;20.08;57.33;100924.06;10584958;28;19928;-68
2022/07/28 08:45:47;;;;;;;;;;;;;;;20.11;57.47;100923.94;10584689;28;19927;-65
2022/07/28 08:50:51;;;;;;;;;;;;;;;20.11;57.89;100920.44;10584401;28;19934;-64
2022/07/28 08:55:59;;;;;;;;;;;;;;;20.20;57.82;100928.03;10585902;28;20028;-64
2022/07/28 09:01:02;;;;;;;;;;;;;;;20.21;57.97;100932.34;10593259;28;19934;-65
2022/07/28 09:06:06;;;;;;;;;;;;;;;20.29;58.56;100928.53;10592701;28;19946;-66
2022/07/28 09:11:10;;;;;;;;;;;;;;;20.41;58.25;100928.03;10592683;28;19924;-63
2022/07/28 09:16:13;;;;;;;;;;;;;;;20.46;57.90;100922.53;10592148;28;19924;-67
2022/07/28 09:21:17;;;;;;;;;;;;;;;20.59;58.37;100929.00;10592258;28;19924;-68
2022/07/28 09:26:21;;;;;;;;;;;;;;;20.78;58.16;100922.03;10592065;28;19923;-68
2022/07/28 09:31:25;;;;;;;;;;;;;;;20.98;57.83;100927.38;10591598;28;20340;-66
2022/07/28 09:36:28;;;;;;;;;;;;;;;21.17;57.51;100922.13;10591499;28;19931;-63
2022/07/28 09:41:48;;;;;;;;;;;;;;;21.38;55.78;100923.81;10591005;28;19928;-65
2022/07/28 09:46:51;;;;;;;;;;;;;;;21.58;56.06;100927.25;10591575;28;19927;-65
2022/07/28 09:52:01;;;;;;;;;;;;;;;21.95;55.13;100923.75;10590918;28;19923;-68
2022/07/28 09:57:10;;;;;;;;;;;;;;;22.11;52.80;100922.09;10591002;28;19934;-65
2022/07/28 10:02:13;;;;;;;;;;;;;;;22.47;55.67;100930.88;10590406;28;20299;-66
2022/07/28 10:07:16;;;;;;;;;;;;;;;28.39;47.21;100908.69;10590131;28;19924;-64
2022/07/28 10:12:22;;;;;;;;;;;;;;;41.35;26.92;100874.28;10590525;28;19923;-65
2022/07/28 10:17:27;;;;;;;;;;;;;;;43.79;22.82;100861.38;10590056;28;20272;-66
2022/07/28 10:22:32;;;;;;;;;;;;;;;42.33;22.70;100861.00;10590351;28;19927;-67
2022/07/28 10:27:37;;;;;;;;;;;;;;;33.28;30.78;100881.56;10589707;28;19934;-66
2022/07/28 10:32:43;;;;;;;;;;;;;;;28.38;37.35;100885.66;10589658;28;20238;-65
2022/07/28 10:37:50;;;;;;;;;;;;;;;27.60;39.79;100891.47;10589182;28;19930;-67
2022/07/28 10:42:55;;;;;;;;;;;;;;;27.05;40.64;100895.34;10589311;28;19924;-67
2022/07/28 10:47:59;;;;;;;;;;;;;;;26.52;42.25;100887.50;10589305;28;19934;-67
2022/07/28 10:53:02;;;;;;;;;;;;;;;26.36;42.80;100904.56;10588698;28;19932;-69
2022/07/28 10:58:10;;;;;;;;;;;;;;;26.70;42.39;100899.59;10588169;28;19934;-67
2022/07/28 11:03:29;;;;;;;;;;;;;;;26.34;42.61;100896.69;10588082;28;19923;-65
2022/07/28 11:08:33;;;;;;;;;;;;;;;26.47;42.79;100902.94;10588016;28;19924;-67
2022/07/28 11:13:37;;;;;;;;;;;;;;;25.99;43.25;100895.47;10587764;28;19931;-66
2022/07/28 11:18:57;;;;;;;;;;;;;;;26.27;44.46;100887.41;10587255;28;20420;-64
2022/07/28 11:24:03;;;;;;;;;;;;;;;26.54;43.90;100888.22;10587191;28;20249;-65
2022/07/28 11:29:30;;;;;;;;;;;;;;;26.59;42.47;100894.13;10587138;28;19934;-66
2022/07/28 11:34:57;;;;;;;;;;;;;;;26.93;42.16;100884.69;10586810;28;19924;-69
2022/07/28 11:40:14;;;;;;;;;;;;;;;27.36;41.38;100882.56;10566810;28;19924;-65
2022/07/28 11:45:23;;;;;;;;;;;;;;;27.75;40.60;100875.19;10585801;28;20253;-66
2022/07/28 11:50:38;;;;;;;;;;;;;;;28.34;39.62;100874.34;10586433;28;19923;-71
2022/07/28 11:55:43;;;;;;;;;;;;;;;28.39;40.25;100874.84;10586268;28;19923;-68
2022/07/28 12:01:12;;;;;;;;;;;;;;;29.38;39.73;100865.34;10586016;28;19928;-66
2022/07/28 12:06:19;;;;;;;;;;;;;;;29.93;39.19;100857.25;10585822;28;19923;-66
2022/07/28 12:11:31;;;;;;;;;;;;;;;30.50;38.39;100852.41;10585619;28;20029;-65
2022/07/28 12:16:37;;;;;;;;;;;;;;;30.84;37.22;100836.16;10585548;28;19924;-68
2022/07/28 12:21:42;;;;;;;;;;;;;;;31.24;37.31;100845.06;10585437;28;19923;-68
2022/07/28 12:26:50;;;;;;;;;;;;;;;31.59;36.81;100841.00;10585209;28;19924;-67
2022/07/28 12:31:57;;;;;;;;;;;;;;;30.61;37.70;100840.78;10584829;28;19935;-66
2022/07/28 12:37:02;;;;;;;;;;;;;;;30.11;37.82;100844.16;10584876;28;19924;-66
2022/07/28 12:42:05;;;;;;;;;;;;;;;30.83;36.17;100853.19;10584502;28;19924;-70
2022/07/28 12:47:10;;;;;;;;;;;;;;;30.99;35.90;100846.38;10584783;28;19923;-69
2022/07/28 12:52:15;;;;;;;;;;;;;;;30.77;35.88;100842.97;10584640;28;20022;-66
2022/07/28 12:57:38;;;;;;;;;;;;;;;30.35;37.40;100850.16;10584547;28;20383;-67
2022/07/28 13:02:52;;;;;;;;;;;;;;;30.14;36.75;100849.25;10584433;28;20240;-66
2022/07/28 13:07:58;;;;;;;;;;;;;;;29.87;36.17;100848.88;10584434;28;19934;-68
2022/07/28 13:13:04;;;;;;;;;;;;;;;29.14;36.58;100853.91;10584226;28;20349;-70
2022/07/28 13:18:08;;;;;;;;;;;;;;;28.96;36.61;100850.00;10583925;28;19931;-68
2022/07/28 13:23:11;;;;;;;;;;;;;;;29.28;37.78;100859.88;10583871;28;20302;-68
2022/07/28 13:28:25;;;;;;;;;;;;;;;29.35;38.30;100846.88;10583974;28;19928;-70
2022/07/28 13:33:30;;;;;;;;;;;;;;;29.55;37.66;100846.09;10583897;28;19950;-67
2022/07/28 13:38:33;;;;;;;;;;;;;;;28.99;38.15;100844.41;10583947;28;19924;-69
2022/07/28 13:43:36;;;;;;;;;;;;;;;28.87;38.57;100850.72;10586834;28;20256;-70
2022/07/28 13:48:40;;;;;;;;;;;;;;;28.75;37.97;100851.66;10591641;28;19999;-70
2022/07/28 13:54:01;;;;;;;;;;;;;;;29.16;38.75;100852.84;10591108;28;19924;-66
2022/07/28 13:59:04;;;;;;;;;;;;;;;29.46;39.04;100853.03;10590514;28;19927;-68
2022/07/28 14:04:11;;;;;;;;;;;;;;;28.11;39.61;100856.50;10590649;28;19924;-69
2022/07/28 14:09:19;;;;;;;;;;;;;;;27.54;41.20;100850.09;10590311;28;19924;-66
2022/07/28 14:14:23;;;;;;;;;;;;;;;27.53;40.70;100858.19;10590167;28;19932;-63
2022/07/28 14:19:28;;;;;;;;;;;;;;;26.94;41.37;100865.06;10590075;28;19924;-67
2022/07/28 14:24:41;;;;;;;;;;;;;;;26.75;43.06;100856.66;10589769;28;19934;-65
2022/07/28 14:29:44;;;;;;;;;;;;;;;27.30;42.77;100858.03;10589496;28;19924;-68
2022/07/28 14:34:49;;;;;;;;;;;;;;;27.25;42.86;100854.81;10589378;28;19984;-68
2022/07/28 14:39:52;;;;;;;;;;;;;;;27.08;43.20;100860.47;10589079;28;20371;-64
2022/07/28 14:44:58;;;;;;;;;;;;;;;26.93;42.11;100871.38;10588868;28;19928;-64
2022/07/28 14:50:02;;;;;;;;;;;;;;;26.52;41.24;100868.84;10589202;28;20400;-65
2022/07/28 14:55:06;;;;;;;;;;;;;;;26.31;42.81;100867.63;10587824;28;19924;-68
2022/07/28 15:00:11;;;;;;;;;;;;;;;26.32;43.06;100876.47;10588237;28;19924;-66
2022/07/28 15:05:15;;;;;;;;;;;;;;;26.11;43.43;100860.97;10587999;28;19930;-67
2022/07/28 15:10:18;;;;;;;;;;;;;;;26.18;42.78;100869.38;10587928;28;19924;-67
2022/07/28 15:15:25;;;;;;;;;;;;;;;26.01;42.87;100861.63;10587324;28;19934;-68
2022/07/28 15:20:30;;;;;;;;;;;;;;;25.98;43.69;100859.19;10588109;28;19930;-65
2022/07/28 15:25:33;;;;;;;;;;;;;;;26.18;43.78;100864.91;10587743;28;19934;-70
2022/07/28 15:30:36;;;;;;;;;;;;;;;26.39;43.12;100854.66;10587398;28;19928;-71
2022/07/28 15:35:52;;;;;;;;;;;;;;;26.44;43.17;100863.16;10586750;28;19976;-70
2022/07/28 15:41:01;;;;;;;;;;;;;;;26.26;43.27;100859.09;10586584;28;19934;-69
2022/07/28 15:46:07;;;;;;;;;;;;;;;25.88;43.58;100866.91;10586534;28;19963;-67
2022/07/28 15:51:12;;;;;;;;;;;;;;;25.51;45.44;100864.91;10586532;28;19924;-67
2022/07/28 15:56:15;;;;;;;;;;;;;;;25.31;45.61;100862.63;10586101;28;19928;-67
2022/07/28 16:01:18;;;;;;;;;;;;;;;25.13;46.18;100862.94;10585587;28;19923;-63
2022/07/28 16:06:22;;;;;;;;;;;;;;;25.03;45.78;100867.94;10585673;28;19923;-63
2022/07/28 16:11:27;;;;;;;;;;;;;;;25.01;45.67;100860.06;10582274;28;19932;-68
2022/07/28 16:16:30;;;;;;;;;;;;;;;24.95;47.11;100868.41;10259244;27;10000124;-66
2022/07/28 16:21:37;;;;;;;;;;;;;;;24.79;46.67;100867.63;10589813;27;19928;-68
2022/07/28 16:26:40;;;;;;;;;;;;;;;24.69;46.79;100868.28;10579315;28;19995;-65
2022/07/28 16:31:44;;;;;;;;;;;;;;;24.62;48.46;100867.78;10578466;28;20328;-66
2022/07/28 16:36:48;;;;;;;;;;;;;;;24.60;48.75;100880.28;10578643;28;20030;-65
2022/07/28 16:41:52;;;;;;;;;;;;;;;24.66;48.64;100871.94;10578953;28;19927;-64
2022/07/28 16:46:59;;;;;;;;;;;;;;;24.61;46.54;100866.03;10578429;28;19927;-64
2022/07/28 16:52:04;;;;;;;;;;;;;;;24.52;49.04;100863.94;10578356;28;20022;-65
2022/07/28 16:57:09;;;;;;;;;;;;;;;24.45;49.62;100867.06;10579541;28;19951;-66
2022/07/28 17:02:13;;;;;;;;;;;;;;;24.36;50.95;100865.81;10578649;28;19935;-67
2022/07/28 17:07:17;;;;;;;;;;;;;;;24.20;52.09;100867.63;10578103;28;19927;-67
2022/07/28 17:12:21;;;;;;;;;;;;;;;24.13;49.96;100868.06;10579280;28;20264;-64
2022/07/28 17:17:26;;;;;;;;;;;;;;;24.01;50.38;100869.63;10621804;27;20364;-64
2022/07/28 17:22:31;;;;;;;;;;;;;;;23.92;50.94;100867.47;10628516;27;20370;-66
2022/07/28 17:27:34;;;;;;;;;;;;;;;23.88;50.47;100871.25;10629186;27;20356;-67
2022/07/28 17:32:41;;;;;;;;;;;;;;;23.81;52.23;100867.22;10628164;27;20021;-66
2022/07/28 17:37:45;;;;;;;;;;;;;;;23.67;53.14;100888.34;10627883;27;19923;-67
2022/07/28 17:42:48;;;;;;;;;;;;;;;23.56;53.15;100886.28;10628509;27;19937;-64
2022/07/28 17:47:51;;;;;;;;;;;;;;;23.53;52.75;100890.91;10628102;27;19927;-66
2022/07/28 17:52:56;;;;;;;;;;;;;;;23.40;51.79;100892.53;10627335;27;19923;-70
2022/07/28 17:58:08;;;;;;;;;;;;;;;23.32;52.57;100897.34;10628182;27;19935;-68
2022/07/28 18:03:11;;;;;;;;;;;;;;;23.19;53.60;100904.22;10626961;27;19941;-64
2022/07/28 18:08:16;;;;;;;;;;;;;;;23.11;53.74;100895.84;10626662;27;19937;-64
2022/07/28 18:13:20;;;;;;;;;;;;;;;23.01;54.50;100907.84;10619402;27;19924;-66
2022/07/28 18:18:23;;;;;;;;;;;;;;;22.88;55.92;100915.59;10584873;28;19936;-66
2022/07/28 18:23:27;;;;;;;;;;;;;;;22.81;57.30;100916.84;10583659;28;19928;-66
2022/07/28 18:28:30;;;;;;;;;;;;;;;22.68;58.34;100913.94;10583187;28;19943;-66
2022/07/28 18:33:33;;;;;;;;;;;;;;;22.57;59.76;100918.91;10584641;28;19976;-66
2022/07/28 18:38:37;;;;;;;;;;;;;;;22.42;59.89;100919.66;10583071;28;19928;-65
2022/07/28 18:43:41;;;;;;;;;;;;;;;22.37;60.27;100929.63;10582712;28;19984;-67
2022/07/28 18:48:44;;;;;;;;;;;;;;;22.23;60.41;100945.31;10581168;28;19923;-70
2022/07/28 18:53:52;;;;;;;;;;;;;;;22.16;61.25;100940.41;10582938;28;20354;-65
2022/07/28 18:58:55;;;;;;;;;;;;;;;22.16;61.73;100943.88;10582503;28;19924;-67
2022/07/28 19:03:58;;;;;;;;;;;;;;;22.10;63.43;100941.56;10582045;28;19931;-66
2022/07/28 19:09:03;;;;;;;;;;;;;;;22.06;63.36;100947.03;10582796;28;20363;-68
2022/07/28 19:14:06;;;;;;;;;;;;;;;21.91;62.72;100951.28;10581862;28;19980;-67
2022/07/28 19:19:13;;;;;;;;;;;;;;;21.78;63.68;100952.78;10591596;27;20072;-67
2022/07/28 19:24:17;;;;;;;;;;;;;;;21.69;63.03;100954.03;10624933;27;20241;-65
2022/07/28 19:29:21;;;;;;;;;;;;;;;21.55;64.57;100953.78;10623539;27;20359;-66
2022/07/28 19:34:25;;;;;;;;;;;;;;;21.49;65.65;100956.72;10623436;27;19998;-67
2022/07/28 19:39:32;;;;;;;;;;;;;;;21.45;65.66;100954.31;10623525;27;19928;-67
2022/07/28 19:44:37;;;;;;;;;;;;;;;21.30;66.31;100960.25;10623108;27;19924;-66
2022/07/28 19:49:40;;;;;;;;;;;;;;;21.31;65.91;100959.34;10622798;27;20578;-67
2022/07/28 19:54:44;;;;;;;;;;;;;;;21.29;65.47;100959.41;10622831;27;19933;-65
2022/07/28 19:59:53;;;;;;;;;;;;;;;21.20;66.01;100961.59;10623398;27;19938;-67
2022/07/28 20:04:56;;;;;;;;;;;;;;;21.05;67.28;100965.78;10622667;27;20369;-67
2022/07/28 20:10:00;;;;;;;;;;;;;;;21.05;66.58;100971.06;10622259;27;20094;-68
2022/07/28 20:15:03;;;;;;;;;;;;;;;20.99;66.39;100968.66;10601081;27;19951;-65
2022/07/28 20:20:07;;;;;;;;;;;;;;;20.92;68.26;100969.81;10584344;28;20251;-66
2022/07/28 20:25:11;;;;;;;;;;;;;;;20.94;69.30;100977.66;10580745;28;19927;-65
2022/07/28 20:30:17;;;;;;;;;;;;;;;20.99;69.86;100981.00;10580683;28;19939;-65
2022/07/28 20:35:20;;;;;;;;;;;;;;;20.88;70.57;100985.84;10579305;28;20264;-65
2022/07/28 20:40:24;;;;;;;;;;;;;;;20.85;71.04;100984.19;10581739;28;19932;-64
2022/07/28 20:45:27;;;;;;;;;;;;;;;20.70;70.45;100984.84;10584812;28;19923;-65
2022/07/28 20:50:30;;;;;;;;;;;;;;;20.58;71.07;100988.84;10584927;28;19938;-66
2022/07/28 20:55:35;;;;;;;;;;;;;;;20.46;71.90;100991.13;10593014;28;19923;-66
2022/07/28 21:00:38;;;;;;;;;;;;;;;20.38;72.65;100999.31;10593132;28;20259;-65
2022/07/28 21:05:41;;;;;;;;;;;;;;;20.43;73.20;101012.34;10593235;28;19934;-64
2022/07/28 21:10:47;;;;;;;;;;;;;;;20.35;74.85;101010.00;10593095;28;19924;-64
2022/07/28 21:15:50;;;;;;;;;;;;;;;20.39;74.98;101026.56;10593327;28;19934;-64
2022/07/28 21:20:53;;;;;;;;;;;;;;;20.31;75.69;101024.22;10592490;28;19924;-64
2022/07/28 21:25:57;;;;;;;;;;;;;;;20.28;75.56;101034.03;10592059;28;19923;-67
2022/07/28 21:31:00;;;;;;;;;;;;;;;20.17;76.76;101044.16;10592092;28;19938;-68
2022/07/28 21:36:03;;;;;;;;;;;;;;;20.10;76.41;101046.13;10592252;28;19934;-66
2022/07/28 21:41:08;;;;;;;;;;;;;;;20.16;76.23;101045.91;10592016;28;19924;-65
2022/07/28 21:46:11;;;;;;;;;;;;;;;20.13;76.76;101046.00;10591307;28;19950;-65
2022/07/28 21:51:14;;;;;;;;;;;;;;;20.09;76.58;101039.13;10591446;28;19941;-62
2022/07/28 21:56:26;;;;;;;;;;;;;;;19.86;77.73;101047.06;10591048;28;19928;-66
2022/07/28 22:01:29;;;;;;;;;;;;;;;19.93;77.21;101053.78;10590938;28;20023;-67
2022/07/28 22:06:32;;;;;;;;;;;;;;;19.93;77.45;101064.31;10590198;28;19930;-65
2022/07/28 22:11:36;;;;;;;;;;;;;;;19.85;78.26;101066.41;10590445;28;19924;-65
2022/07/28 22:16:39;;;;;;;;;;;;;;;19.97;77.89;101067.72;10590161;28;19934;-65
2022/07/28 22:21:42;;;;;;;;;;;;;;;19.80;78.47;101073.59;10590219;28;19923;-64
2022/07/28 22:26:46;;;;;;;;;;;;;;;19.89;77.42;101073.28;10589870;28;20336;-66
2022/07/28 22:31:49;;;;;;;;;;;;;;;19.70;78.55;101072.22;10589618;28;19942;-67
2022/07/28 22:36:57;;;;;;;;;;;;;;;19.74;77.58;101075.63;10589729;28;19931;-64
2022/07/28 22:42:02;;;;;;;;;;;;;;;19.62;77.77;101084.81;10589569;28;19927;-66
2022/07/28 22:47:05;;;;;;;;;;;;;;;19.55;78.12;101088.59;10589089;28;19924;-66
2022/07/28 22:52:08;;;;;;;;;;;;;;;19.49;78.92;101094.91;10588825;28;19924;-66
2022/07/28 22:57:13;;;;;;;;;;;;;;;19.44;80.04;101106.53;10588586;28;20032;-65
2022/07/28 23:02:16;;;;;;;;;;;;;;;19.46;79.17;101105.56;10589029;28;19934;-68
2022/07/28 23:07:19;;;;;;;;;;;;;;;19.50;78.86;101107.16;10588355;28;19923;-67
2022/07/28 23:12:43;;;;;;;;;;;;;;;19.44;79.48;101106.53;10588114;28;19924;-67
2022/07/28 23:17:46;;;;;;;;;;;;;;;19.38;80.89;101099.69;10586866;28;19946;-66
2022/07/28 23:22:49;;;;;;;;;;;;;;;19.32;81.59;101099.91;10587617;28;20405;-67
2022/07/28 23:27:53;;;;;;;;;;;;;;;19.36;80.28;101109.41;10587581;28;19934;-65
2022/07/28 23:32:56;;;;;;;;;;;;;;;19.34;81.02;101108.63;10587321;28;19945;-67
2022/07/28 23:37:59;;;;;;;;;;;;;;;19.33;81.17;101114.78;10587285;28;19924;-66
2022/07/28 23:43:03;;;;;;;;;;;;;;;19.26;81.83;101120.25;10586466;28;19924;-68
2022/07/28 23:48:06;;;;;;;;;;;;;;;19.33;81.12;101113.91;10586666;28;19924;-70
2022/07/28 23:53:09;;;;;;;;;;;;;;;19.33;80.89;101111.28;10586617;28;20224;-70
2022/07/28 23:58:14;;;;;;;;;;;;;;;19.34;80.81;101119.16;10586415;28;20356;-65
